Terminal Aerodrome Forecast
Issued by NWS Pittsburgh, PA

Current Version | Previous Version | Graphics & Text | Print | Product List | Glossary On
Versions: 1 2 3 4 5 6 7 8 9 10 11 12 13 14 15 16 17 18 19 20 21 22 23 24 25 26 27
000
FTUS41 KPBZ 241720
TAFPIT
TAF
KPIT 241720Z 2418/2524 30012G22KT P6SM FEW040
     FM250000 34006KT P6SM SKC
     FM250600 03004KT P6SM BKN200
     FM251200 09005KT P6SM BKN050
     FM252200 12005KT P6SM -RA OVC050=

USA.gov is the U.S. government's official web portal to all federal, state and local government web resources and services.